Time;durP1;ratioP1;P1;durP2;ratioP2;P2;SDS_P1;SDS_P2;PMS_P1;PMS_P2;Temp;Humidity;BMP_temperature;BMP_pressure;BME280_temperature;BME280_humidity;BME280_pressure;Samples;Min_cycle;Max_cycle;Signal;HPM_P1;HPM_P2
2024/02/28 00:01:20;;;;;;;75.45;40.00;;;;;;;9.83;68.51;100209.16;6185917;22;97186;-87
2024/02/28 00:03:46;;;;;;;75.97;40.85;;;;;;;9.94;68.72;100224.50;6161024;22;98533;-87
2024/02/28 00:06:12;;;;;;;71.60;38.45;;;;;;;9.96;68.67;100223.56;6135885;22;100790;-87
2024/02/28 00:08:37;;;;;;;82.18;40.85;;;;;;;9.95;68.54;100228.88;6161106;22;96649;-87
2024/02/28 00:11:03;;;;;;;69.75;38.20;;;;;;;10.01;68.38;100235.69;6160636;22;96792;-87
2024/02/28 00:13:29;;;;;;;75.80;39.65;;;;;;;9.98;68.04;100234.00;6184182;22;97932;-87
2024/02/28 00:15:54;;;;;;;71.80;38.72;;;;;;;9.99;68.33;100233.09;6159999;22;101209;-87
2024/02/28 00:18:20;;;;;;;75.13;40.03;;;;;;;9.94;68.46;100222.75;6136176;22;96887;-88
2024/02/28 00:20:45;;;;;;;76.38;38.20;;;;;;;10.04;68.43;100240.81;6160149;22;97143;-86
2024/02/28 00:23:11;;;;;;;79.72;39.50;;;;;;;9.98;68.46;100226.16;6160528;22;102223;-87
2024/02/28 00:25:37;;;;;;;67.40;36.75;;;;;;;9.88;68.19;100212.47;6159938;22;100928;-87
2024/02/28 00:28:03;;;;;;;76.32;40.20;;;;;;;9.84;68.25;100212.63;6160758;22;96697;-86
2024/02/28 00:30:29;;;;;;;70.65;38.22;;;;;;;9.90;68.28;100233.41;6186156;22;96847;-86
2024/02/28 00:32:54;;;;;;;67.95;38.83;;;;;;;9.94;68.66;100235.84;6160702;22;97930;-87
2024/02/28 00:35:20;;;;;;;72.10;40.60;;;;;;;9.88;68.99;100229.97;6212070;22;97761;-86
2024/02/28 00:37:45;;;;;;;74.35;39.42;;;;;;;9.82;68.60;100217.06;6185675;22;96773;-87
2024/02/28 00:40:12;;;;;;;73.88;39.55;;;;;;;9.96;68.68;100239.28;6185930;22;97190;-87
2024/02/28 00:42:37;;;;;;;74.20;39.95;;;;;;;9.95;68.98;100236.75;6160128;22;98395;-85
2024/02/28 00:45:03;;;;;;;71.93;40.75;;;;;;;9.88;68.90;100214.22;6185371;22;96972;-86
2024/02/28 00:47:28;;;;;;;74.60;41.85;;;;;;;10.03;68.49;100239.09;6135868;22;96651;-86
2024/02/28 00:49:54;;;;;;;77.68;41.45;;;;;;;10.01;68.70;100230.44;6135592;22;97153;-87
2024/02/28 00:52:20;;;;;;;69.43;41.03;;;;;;;9.98;68.63;100232.25;6160414;22;100973;-87
2024/02/28 00:54:45;;;;;;;75.63;42.60;;;;;;;9.96;68.46;100230.56;6160925;22;98465;-88
2024/02/28 00:57:11;;;;;;;83.82;44.90;;;;;;;9.96;68.95;100220.94;6161140;22;97091;-87
2024/02/28 00:59:36;;;;;;;87.93;45.42;;;;;;;9.91;69.02;100219.38;6160845;22;96656;-86
2024/02/28 01:02:03;;;;;;;82.25;44.28;;;;;;;9.93;68.83;100222.81;6159778;22;101551;-87
2024/02/28 01:04:29;;;;;;;83.22;46.15;;;;;;;9.91;68.49;100207.13;6135081;22;101258;-86
2024/02/28 01:06:54;;;;;;;83.07;46.13;;;;;;;9.98;69.06;100234.88;6161033;22;97230;-87
2024/02/28 01:09:21;;;;;;;84.72;45.00;;;;;;;9.86;68.46;100213.41;6160740;22;97279;-88
2024/02/28 01:11:47;;;;;;;77.75;43.35;;;;;;;9.94;68.91;100221.91;6136606;22;101159;-87
2024/02/28 01:14:12;;;;;;;88.45;43.97;;;;;;;10.02;68.84;100235.63;6135781;22;99771;-87
2024/02/28 01:16:38;;;;;;;84.72;46.38;;;;;;;9.96;68.90;100234.06;6187524;22;96616;-86
2024/02/28 01:19:03;;;;;;;89.20;45.53;;;;;;;9.94;69.21;100228.00;6161951;22;96936;-86
2024/02/28 01:21:29;;;;;;;77.72;45.15;;;;;;;10.03;69.16;100241.72;6160984;22;97787;-87
2024/02/28 01:23:54;;;;;;;87.93;45.53;;;;;;;9.95;68.88;100234.97;6162047;22;100355;-87
2024/02/28 01:26:22;;;;;;;88.97;46.75;;;;;;;9.96;69.41;100241.91;6161375;22;97036;-86
2024/02/28 01:28:48;;;;;;;90.65;46.75;;;;;;;9.87;69.36;100215.16;6137619;22;96816;-87
2024/02/28 01:31:14;;;;;;;82.05;45.20;;;;;;;9.89;69.68;100235.19;6187300;22;97875;-87
2024/02/28 01:33:40;;;;;;;92.32;49.72;;;;;;;9.85;69.47;100216.97;6136815;22;101257;-87
2024/02/28 01:36:10;;;;;;;89.43;47.17;;;;;;;9.97;69.52;100243.63;6161897;22;96784;-87
2024/02/28 01:38:36;;;;;;;94.75;49.50;;;;;;;9.73;69.70;100208.56;6162457;22;96822;-86
2024/02/28 01:41:02;;;;;;;105.65;50.33;;;;;;;9.86;70.06;100237.91;6136065;22;101358;-86
2024/02/28 01:43:27;;;;;;;105.18;49.55;;;;;;;9.90;69.45;100228.16;6136532;22;102112;-87
2024/02/28 01:45:53;;;;;;;108.63;50.40;;;;;;;9.92;70.01;100228.97;6187135;22;96677;-87
2024/02/28 01:48:18;;;;;;;106.10;50.85;;;;;;;9.95;69.80;100228.88;6137055;22;96823;-87
2024/02/28 01:50:44;;;;;;;108.53;51.85;;;;;;;9.93;69.63;100228.91;6160773;22;101376;-87
2024/02/28 01:53:11;;;;;;;104.88;49.08;;;;;;;10.01;69.91;100227.81;6186015;22;97969;-87
2024/02/28 01:55:37;;;;;;;111.78;52.83;;;;;;;9.93;69.83;100221.03;6160858;22;96664;-87
2024/02/28 01:58:07;;;;;;;113.18;51.97;;;;;;;9.96;69.91;100222.72;6136165;22;96663;-87
2024/02/28 02:00:36;;;;;;;113.35;53.65;;;;;;;9.94;70.07;100219.28;6185786;22;97225;-87
2024/02/28 02:03:01;;;;;;;107.65;50.83;;;;;;;9.94;70.32;100222.75;6134731;22;100917;-87
2024/02/28 02:05:27;;;;;;;123.38;56.55;;;;;;;9.91;69.84;100203.63;6185766;22;96802;-87
2024/02/28 02:07:53;;;;;;;117.53;52.30;;;;;;;10.01;70.14;100226.03;6136386;22;97012;-86
2024/02/28 02:10:19;;;;;;;128.82;54.80;;;;;;;10.04;70.50;100220.69;6186834;22;97989;-87
2024/02/28 02:12:44;;;;;;;128.23;56.67;;;;;;;10.01;70.35;100219.94;6185881;22;98020;-86
2024/02/28 02:15:10;;;;;;;129.98;55.03;;;;;;;9.96;70.64;100217.47;6160711;22;97154;-86
2024/02/28 02:17:35;;;;;;;125.97;55.90;;;;;;;9.93;70.71;100204.47;6136698;22;97340;-87
2024/02/28 02:20:02;;;;;;;128.07;55.20;;;;;;;9.91;70.72;100201.03;6136192;22;101513;-86
2024/02/28 02:22:32;;;;;;;132.55;56.78;;;;;;;9.92;70.64;100198.38;6155504;22;98306;-87
2024/02/28 02:24:58;;;;;;;143.35;59.95;;;;;;;9.99;70.57;100214.75;6156848;22;96744;-85
2024/02/28 02:27:25;;;;;;;134.02;58.50;;;;;;;9.93;71.14;100209.69;6156968;22;96745;-86
2024/02/28 02:29:51;;;;;;;134.23;56.83;;;;;;;9.96;70.74;100213.06;6131250;22;101508;-86
2024/02/28 02:32:16;;;;;;;139.48;57.90;;;;;;;10.05;70.84;100226.78;6157019;22;97696;-86
2024/02/28 02:34:42;;;;;;;143.70;61.90;;;;;;;10.02;71.23;100225.13;6181419;22;96721;-86
2024/02/28 02:37:08;;;;;;;133.60;55.35;;;;;;;10.02;71.34;100219.88;6156823;22;96867;-87
2024/02/28 02:39:34;;;;;;;155.13;58.65;;;;;;;10.01;71.58;100219.94;6155971;22;100753;-87
2024/02/28 02:42:00;;;;;;;151.23;56.22;;;;;;;9.98;71.55;100210.41;6156733;22;99915;-86
2024/02/28 02:44:25;;;;;;;147.95;57.05;;;;;;;9.88;71.40;100198.50;6156519;22;97322;-88
2024/02/28 02:46:51;;;;;;;149.98;57.95;;;;;;;10.00;71.76;100212.97;6156558;22;97137;-86
2024/02/28 02:49:18;;;;;;;144.50;56.42;;;;;;;9.85;71.78;100188.13;6131750;22;100303;-87
2024/02/28 02:51:44;;;;;;;141.98;54.58;;;;;;;9.94;71.53;100211.41;6131306;22;101250;-87
2024/02/28 02:54:10;;;;;;;143.48;55.33;;;;;;;9.93;71.63;100217.56;6156328;22;96756;-87
2024/02/28 02:56:36;;;;;;;147.20;57.85;;;;;;;9.92;72.06;100221.09;6157244;22;97002;-88
2024/02/28 02:59:02;;;;;;;142.73;55.75;;;;;;;9.82;72.36;100198.72;6131485;22;100244;-87
2024/02/28 03:01:28;;;;;;;142.02;54.90;;;;;;;9.98;72.06;100215.66;6181464;22;97802;-87
2024/02/28 03:03:54;;;;;;;153.65;59.85;;;;;;;9.64;72.29;100173.97;6156296;22;96703;-87
2024/02/28 03:06:19;;;;;;;146.30;57.47;;;;;;;9.90;72.10;100215.91;6181746;22;96878;-86
2024/02/28 03:08:45;;;;;;;143.20;56.03;;;;;;;9.89;72.46;100218.56;6131181;22;101322;-86
2024/02/28 03:11:11;;;;;;;132.38;53.75;;;;;;;9.78;72.33;100203.19;6181363;22;98003;-86
2024/02/28 03:13:37;;;;;;;146.52;55.63;;;;;;;9.92;72.10;100221.97;6156221;22;96691;-87
2024/02/28 03:16:06;;;;;;;136.85;54.53;;;;;;;9.78;72.67;100197.09;6156555;22;96716;-87
2024/02/28 03:18:31;;;;;;;138.82;54.20;;;;;;;9.82;72.47;100206.56;6181311;22;100865;-86
2024/02/28 03:20:57;;;;;;;142.52;55.25;;;;;;;9.94;72.44;100235.84;6131370;22;100370;-87
2024/02/28 03:23:22;;;;;;;128.52;53.97;;;;;;;9.95;72.30;100237.59;6131365;22;96719;-87
2024/02/28 03:25:48;;;;;;;143.05;55.83;;;;;;;9.91;72.59;100233.34;6181573;22;96682;-87
2024/02/28 03:28:13;;;;;;;126.68;50.80;;;;;;;9.86;72.33;100222.16;6130349;22;101376;-85
2024/02/28 03:30:39;;;;;;;136.68;55.22;;;;;;;9.88;72.69;100236.06;6181154;22;98320;-86
2024/02/28 03:33:04;;;;;;;124.13;52.58;;;;;;;9.94;72.44;100237.63;6155409;22;96728;-86
2024/02/28 03:35:30;;;;;;;126.57;52.50;;;;;;;9.88;72.41;100229.97;6131405;22;97040;-86
2024/02/28 03:37:55;;;;;;;127.03;50.90;;;;;;;9.88;72.68;100224.72;6155924;22;98029;-87
2024/02/28 03:40:21;;;;;;;122.15;51.58;;;;;;;9.88;72.90;100225.56;6180506;22;97976;-87
2024/02/28 03:42:46;;;;;;;135.57;54.53;;;;;;;9.90;72.65;100231.63;6181513;22;96765;-87
2024/02/28 03:45:12;;;;;;;127.85;54.60;;;;;;;9.94;72.63;100245.50;6156812;22;96710;-87
2024/02/28 03:47:37;;;;;;;124.50;54.05;;;;;;;9.93;72.59;100241.16;6130384;22;101774;-87
2024/02/28 03:50:03;;;;;;;121.53;51.80;;;;;;;9.90;73.18;100233.41;6155531;22;100274;-87
2024/02/28 03:52:30;;;;;;;141.05;55.50;;;;;;;9.78;72.80;100213.69;6130144;22;96757;-87
2024/02/28 03:54:55;;;;;;;129.35;52.85;;;;;;;9.91;72.67;100238.59;6180609;22;96778;-87
2024/02/28 03:57:21;;;;;;;156.00;57.67;;;;;;;9.83;72.92;100217.03;6130910;22;101438;-88
2024/02/28 03:59:46;;;;;;;146.82;57.00;;;;;;;9.89;73.08;100237.78;6156144;22;97855;-87
2024/02/28 04:02:12;;;;;;;140.73;56.28;;;;;;;9.96;72.70;100251.56;6183091;22;97270;-86
2024/02/28 04:04:37;;;;;;;136.73;55.78;;;;;;;9.95;72.96;100241.97;6181148;22;97072;-87
2024/02/28 04:07:03;;;;;;;131.63;55.40;;;;;;;9.86;73.14;100235.28;6155809;22;97458;-86
2024/02/28 04:09:28;;;;;;;125.97;53.58;;;;;;;9.90;73.18;100250.00;6131220;22;100676;-88
2024/02/28 04:11:54;;;;;;;126.43;52.15;;;;;;;9.87;73.16;100242.22;6183056;22;96576;-88
2024/02/28 04:14:19;;;;;;;120.22;50.50;;;;;;;9.91;73.23;100262.19;6180837;22;96943;-87
2024/02/28 04:16:45;;;;;;;120.90;51.83;;;;;;;9.80;73.23;100234.59;6180335;22;98983;-87
2024/02/28 04:19:11;;;;;;;119.28;49.15;;;;;;;9.90;72.90;100259.63;6181159;22;97787;-86
2024/02/28 04:21:37;;;;;;;115.45;50.75;;;;;;;9.88;73.15;100261.44;6155681;22;96970;-88
2024/02/28 04:24:06;;;;;;;120.07;51.63;;;;;;;9.87;72.91;100255.34;6156128;22;96858;-87
2024/02/28 04:26:31;;;;;;;118.72;48.58;;;;;;;9.90;72.98;100263.09;6130401;22;101891;-86
2024/02/28 04:28:57;;;;;;;114.30;50.25;;;;;;;9.93;72.94;100268.25;6180787;22;98291;-86
2024/02/28 04:31:23;;;;;;;120.30;49.53;;;;;;;9.79;73.09;100244.22;6155751;22;96926;-86
2024/02/28 04:33:48;;;;;;;110.97;48.35;;;;;;;9.81;73.16;100259.91;6156319;22;96774;-86
2024/02/28 04:36:15;;;;;;;111.60;47.67;;;;;;;9.90;73.11;100268.34;6130284;22;101950;-86
2024/02/28 04:38:41;;;;;;;106.03;47.50;;;;;;;9.93;72.83;100272.63;6182311;22;97313;-86
2024/02/28 04:41:07;;;;;;;114.13;48.97;;;;;;;9.95;73.01;100278.69;6154966;22;97251;-87
2024/02/28 04:43:32;;;;;;;112.97;48.15;;;;;;;9.90;73.15;100270.97;6181198;22;97077;-86
2024/02/28 04:45:58;;;;;;;99.53;44.25;;;;;;;9.93;72.95;100272.63;6156908;22;99796;-87
2024/02/28 04:48:23;;;;;;;106.72;45.08;;;;;;;9.93;73.21;100278.72;6181801;22;97145;-86
2024/02/28 04:50:49;;;;;;;107.15;46.47;;;;;;;9.88;72.89;100280.63;6131916;22;96668;-87
2024/02/28 04:53:14;;;;;;;94.47;43.10;;;;;;;9.80;73.21;100259.03;6157494;22;96700;-86
2024/02/28 04:55:40;;;;;;;100.28;46.78;;;;;;;9.86;73.00;100276.34;6156723;22;100459;-86
2024/02/28 04:58:05;;;;;;;101.22;41.65;;;;;;;9.96;72.86;100286.50;6157507;22;101126;-86
2024/02/28 05:00:31;;;;;;;102.70;45.65;;;;;;;9.92;72.99;100284.91;6157219;22;97050;-85
2024/02/28 05:02:56;;;;;;;98.32;43.58;;;;;;;9.92;73.04;100278.78;6182725;22;96797;-86
2024/02/28 05:05:22;;;;;;;86.60;40.50;;;;;;;9.80;73.08;100260.81;6181087;22;98024;-87
2024/02/28 05:07:48;;;;;;;90.85;40.80;;;;;;;9.83;72.65;100258.09;6131996;22;101155;-86
2024/02/28 05:10:13;;;;;;;88.65;39.22;;;;;;;9.93;73.03;100286.59;6132083;22;96744;-86
2024/02/28 05:12:39;;;;;;;90.28;41.13;;;;;;;9.92;72.92;100284.03;6131658;22;96794;-87
2024/02/28 05:15:06;;;;;;;81.60;39.42;;;;;;;9.85;72.41;100275.50;6182028;22;98624;-87
2024/02/28 05:17:32;;;;;;;82.30;39.97;;;;;;;9.75;72.77;100269.69;6132130;22;101528;-87
2024/02/28 05:19:58;;;;;;;85.05;38.67;;;;;;;9.82;72.76;100275.59;6181906;22;97051;-86
2024/02/28 05:22:23;;;;;;;81.55;36.95;;;;;;;9.94;72.77;100309.28;6182132;22;97161;-86
2024/02/28 05:24:49;;;;;;;79.28;37.10;;;;;;;9.93;72.88;100296.22;6129866;22;101372;-86
2024/02/28 05:27:14;;;;;;;83.53;37.58;;;;;;;9.89;72.70;100298.09;6180876;22;97926;-84
2024/02/28 05:29:42;;;;;;;68.18;34.08;;;;;;;9.93;73.01;100307.56;6155776;22;97060;-85
2024/02/28 05:32:08;;;;;;;64.78;33.78;;;;;;;9.72;72.76;100290.75;6155811;22;97159;-85
2024/02/28 05:34:34;;;;;;;70.32;34.10;;;;;;;9.96;72.84;100312.72;6155190;22;97235;-86
2024/02/28 05:37:00;;;;;;;66.45;32.83;;;;;;;9.88;72.90;100306.84;6154973;22;101485;-84
2024/02/28 05:39:29;;;;;;;64.43;31.92;;;;;;;9.97;72.99;100322.28;6155579;22;96694;-83
2024/02/28 05:41:55;;;;;;;66.00;34.22;;;;;;;9.89;72.78;100318.19;6156807;22;96720;-84
2024/02/28 05:44:20;;;;;;;64.10;33.42;;;;;;;9.82;72.81;100301.81;6153645;22;100830;-84
2024/02/28 05:46:46;;;;;;;63.70;32.85;;;;;;;9.88;73.00;100316.50;6179040;22;97307;-83
2024/02/28 05:49:11;;;;;;;59.40;31.88;;;;;;;9.91;72.52;100319.88;6181171;22;97326;-83
2024/02/28 05:51:37;;;;;;;59.55;32.38;;;;;;;9.83;72.44;100300.03;6180515;22;97212;-83
2024/02/28 05:54:05;;;;;;;57.80;30.75;;;;;;;9.97;72.87;100330.16;6152893;22;101054;-82
2024/02/28 05:56:34;;;;;;;53.38;30.45;;;;;;;9.93;72.77;100317.22;6153033;22;101433;-83
2024/02/28 05:59:00;;;;;;;56.38;30.98;;;;;;;9.95;73.03;100331.16;6128545;22;97143;-83
2024/02/28 06:01:25;;;;;;;54.60;29.05;;;;;;;9.88;72.88;100322.59;6179077;22;97078;-83
2024/02/28 06:03:51;;;;;;;55.72;31.08;;;;;;;9.94;73.21;100342.50;6126158;22;101902;-86
2024/02/28 06:06:17;;;;;;;51.58;28.83;;;;;;;9.96;73.16;100344.19;6125925;22;101488;-76
2024/02/28 06:08:43;;;;;;;49.33;27.05;;;;;;;9.98;73.27;100341.53;6154382;22;96880;-86
2024/02/28 06:11:09;;;;;;;48.88;26.58;;;;;;;9.91;73.26;100340.00;6153956;22;96930;-82
2024/02/28 06:13:35;;;;;;;47.63;28.83;;;;;;;9.88;73.32;100334.84;6180019;22;97620;-82
2024/02/28 06:16:01;;;;;;;49.00;27.20;;;;;;;9.97;73.16;100338.03;6179797;22;97509;-80
2024/02/28 06:18:27;;;;;;;46.70;26.77;;;;;;;10.03;72.88;100347.47;6155213;22;97262;-79
2024/02/28 06:20:55;;;;;;;48.88;27.38;;;;;;;9.93;72.74;100330.31;6130669;22;96634;-78
2024/02/28 06:23:21;;;;;;;47.70;26.33;;;;;;;10.06;72.99;100338.66;6129076;22;101567;-85
2024/02/28 06:25:46;;;;;;;47.40;26.75;;;;;;;9.90;72.73;100327.78;6129829;22;98030;-82
2024/02/28 06:28:12;;;;;;;42.58;25.63;;;;;;;10.05;72.97;100350.91;6130231;22;97056;-85
2024/02/28 06:30:37;;;;;;;44.60;25.60;;;;;;;9.68;73.43;100299.59;6104672;22;97023;-82
2024/02/28 06:33:04;;;;;;;43.38;25.80;;;;;;;10.02;73.38;100358.03;6153776;22;101241;-82
2024/02/28 06:35:30;;;;;;;46.67;26.50;;;;;;;10.05;73.11;100360.53;6154804;22;97465;-81
2024/02/28 06:37:55;;;;;;;43.08;25.35;;;;;;;10.03;73.08;100359.72;6130192;22;96696;-83
2024/02/28 06:40:21;;;;;;;49.92;26.90;;;;;;;9.90;73.30;100339.13;6180015;22;97195;-82
2024/02/28 06:42:46;;;;;;;39.78;25.52;;;;;;;10.11;73.15;100373.47;6127686;22;97821;-82
2024/02/28 06:45:12;;;;;;;37.75;25.17;;;;;;;10.09;72.67;100347.28;6154393;22;97212;-87
2024/02/28 06:47:38;;;;;;;41.95;25.30;;;;;;;10.07;72.97;100354.34;6153086;22;96959;-81
2024/02/28 06:50:04;;;;;;;38.42;23.30;;;;;;;10.09;72.95;100362.16;6104927;22;96919;-81
2024/02/28 06:52:30;;;;;;;35.35;21.90;;;;;;;10.02;72.92;100355.41;6152336;22;97474;-83
2024/02/28 06:54:55;;;;;;;41.88;24.42;;;;;;;10.04;73.18;100353.59;6128655;22;97331;-81
2024/02/28 06:57:21;;;;;;;36.55;23.45;;;;;;;10.24;72.86;100371.31;6154012;22;96642;-82
2024/02/28 06:59:46;;;;;;;34.10;22.17;;;;;;;10.22;72.81;100365.28;6155567;22;96831;-80
2024/02/28 07:02:12;;;;;;;41.05;24.27;;;;;;;10.25;72.94;100375.66;6153985;22;97502;-84
2024/02/28 07:04:38;;;;;;;41.53;24.80;;;;;;;10.29;73.52;100377.31;6180790;22;97356;-81
2024/02/28 07:07:04;;;;;;;40.65;24.90;;;;;;;10.16;73.44;100359.31;6127705;22;96799;-80
2024/02/28 07:09:32;;;;;;;34.30;22.95;;;;;;;10.33;73.78;100392.06;6155169;22;97310;-80
2024/02/28 07:11:58;;;;;;;40.58;23.20;;;;;;;10.36;73.42;100394.59;6128501;22;101715;-82
2024/02/28 07:14:24;;;;;;;36.35;23.17;;;;;;;10.34;72.97;100393.75;6153585;22;97994;-81
2024/02/28 07:16:51;;;;;;;38.40;22.15;;;;;;;10.27;73.33;100385.25;6180797;22;96662;-81
2024/02/28 07:19:17;;;;;;;37.92;23.80;;;;;;;10.41;73.14;100400.53;6130157;22;97498;-80
2024/02/28 07:21:46;;;;;;;36.10;22.88;;;;;;;10.39;73.38;100384.00;6164440;22;98176;-85
2024/02/28 07:24:12;;;;;;;33.58;22.55;;;;;;;10.43;73.74;100393.47;6153035;22;101931;-84
2024/02/28 07:26:39;;;;;;;38.88;23.77;;;;;;;10.47;73.60;100407.34;6151890;22;97057;-86
2024/02/28 07:29:05;;;;;;;32.75;22.52;;;;;;;10.42;74.12;100407.50;6130019;22;96879;-84
2024/02/28 07:31:30;;;;;;;34.55;21.85;;;;;;;10.32;74.06;100390.31;6153411;22;97926;-85
2024/02/28 07:33:56;;;;;;;34.08;21.40;;;;;;;10.47;73.53;100409.97;6153102;22;101184;-84
2024/02/28 07:36:22;;;;;;;34.17;22.38;;;;;;;10.58;73.51;100418.34;6176587;22;97199;-86
2024/02/28 07:38:48;;;;;;;32.90;21.52;;;;;;;10.55;73.23;100418.47;6154314;22;96783;-85
2024/02/28 07:41:14;;;;;;;37.55;22.33;;;;;;;10.40;73.51;100398.81;6153013;22;101794;-84
2024/02/28 07:43:42;;;;;;;32.72;22.15;;;;;;;10.62;73.01;100422.63;6178122;22;97939;-84
2024/02/28 07:46:09;;;;;;;31.58;21.33;;;;;;;10.56;73.04;100423.66;6128130;22;97215;-85
2024/02/28 07:48:34;;;;;;;30.10;20.60;;;;;;;10.60;72.93;100425.28;6154432;22;97273;-85
2024/02/28 07:51:01;;;;;;;30.42;20.80;;;;;;;10.55;73.28;100432.44;6128604;22;101771;-85
2024/02/28 07:53:26;;;;;;;27.77;19.20;;;;;;;10.53;73.45;100423.78;6153271;22;97818;-83
2024/02/28 07:55:52;;;;;;;29.60;18.50;;;;;;;10.68;73.14;100437.31;6177235;22;97250;-83
2024/02/28 07:58:17;;;;;;;27.45;16.98;;;;;;;10.52;73.48;100423.81;6154698;22;96971;-86
2024/02/28 08:00:43;;;;;;;25.92;18.67;;;;;;;10.61;73.19;100429.59;6128083;22;101465;-84
2024/02/28 08:03:09;;;;;;;30.50;17.95;;;;;;;10.42;73.13;100395.25;6179028;22;98037;-83
2024/02/28 08:05:38;;;;;;;23.98;16.52;;;;;;;10.44;73.48;100410.91;6179821;22;97140;-84
2024/02/28 08:08:07;;;;;;;24.80;17.75;;;;;;;10.50;73.14;100421.25;6179150;22;96776;-85
2024/02/28 08:10:37;;;;;;;24.88;17.23;;;;;;;10.61;72.88;100442.72;6127342;22;101712;-83
2024/02/28 08:13:07;;;;;;;31.77;17.35;;;;;;;10.62;73.32;100436.59;6180151;22;97357;-84
2024/02/28 08:15:34;;;;;;;25.50;16.35;;;;;;;10.67;73.23;100446.06;6129091;22;96816;-83
2024/02/28 08:18:01;;;;;;;24.92;15.20;;;;;;;10.40;73.23;100406.69;6152154;22;97202;-84
2024/02/28 08:20:27;;;;;;;21.17;14.82;;;;;;;10.67;73.43;100443.44;6153046;22;97605;-84
2024/02/28 08:22:52;;;;;;;21.02;14.55;;;;;;;10.60;73.13;100441.03;6159318;22;99682;-83
2024/02/28 08:25:18;;;;;;;19.13;13.55;;;;;;;10.56;73.30;100447.28;6159593;22;96636;-83
2024/02/28 08:27:44;;;;;;;20.23;15.07;;;;;;;10.55;73.21;100447.31;6135180;22;97185;-82
2024/02/28 08:30:09;;;;;;;19.15;14.57;;;;;;;10.61;72.87;100455.84;6134387;22;100524;-81
2024/02/28 08:32:35;;;;;;;20.40;12.63;;;;;;;10.51;73.26;100443.09;6184506;22;97230;-83
2024/02/28 08:35:01;;;;;;;17.23;12.18;;;;;;;10.56;73.52;100452.53;6184799;22;96947;-82
2024/02/28 08:37:28;;;;;;;15.82;10.88;;;;;;;10.64;72.92;100465.41;6186409;22;96756;-82
2024/02/28 08:39:57;;;;;;;16.20;11.57;;;;;;;10.57;72.75;100454.25;6184848;22;97832;-82
2024/02/28 08:42:24;;;;;;;17.00;10.68;;;;;;;10.60;72.89;100469.06;6134576;22;100635;-83
2024/02/28 08:44:50;;;;;;;18.20;11.15;;;;;;;10.50;72.62;100458.00;6159024;22;96676;-83
2024/02/28 08:47:16;;;;;;;16.70;12.30;;;;;;;10.54;73.34;100462.22;6186382;22;96811;-80
2024/02/28 08:49:41;;;;;;;17.13;11.65;;;;;;;10.59;72.64;100456.84;6184660;22;96663;-83
2024/02/28 08:52:07;;;;;;;17.40;11.55;;;;;;;10.62;73.11;100472.50;6131775;22;100589;-83
2024/02/28 08:54:32;;;;;;;16.40;12.20;;;;;;;10.60;73.09;100474.28;6156719;22;97767;-82
2024/02/28 08:56:58;;;;;;;18.67;12.45;;;;;;;10.54;73.00;100461.38;6212502;22;96756;-86
2024/02/28 08:59:23;;;;;;;16.20;11.43;;;;;;;10.61;72.49;100476.00;6185060;22;97495;-83
2024/02/28 09:01:49;;;;;;;18.38;11.75;;;;;;;10.55;72.87;100460.44;6185535;22;97226;-82
2024/02/28 09:04:14;;;;;;;21.88;12.82;;;;;;;10.63;73.26;100477.69;6134790;22;96742;-82
2024/02/28 09:06:40;;;;;;;21.67;14.40;;;;;;;10.62;73.01;100475.13;6185453;22;96885;-82
2024/02/28 09:09:06;;;;;;;15.43;10.88;;;;;;;10.50;72.74;100471.13;6159955;22;97675;-82
2024/02/28 09:11:31;;;;;;;18.02;12.13;;;;;;;10.50;72.75;100464.97;6134292;22;100523;-83
2024/02/28 09:13:57;;;;;;;20.17;12.75;;;;;;;10.48;72.90;100461.56;6211809;22;96657;-82
2024/02/28 09:16:22;;;;;;;18.10;12.35;;;;;;;10.56;72.97;100462.16;6159897;22;96895;-82
2024/02/28 09:18:48;;;;;;;18.85;12.05;;;;;;;10.54;73.03;100451.72;6159754;22;99069;-86
2024/02/28 09:21:15;;;;;;;22.45;12.20;;;;;;;10.62;73.11;100464.63;6184466;22;97620;-83
2024/02/28 09:23:41;;;;;;;16.73;12.07;;;;;;;10.68;72.78;100479.31;6185791;22;97111;-83
2024/02/28 09:26:06;;;;;;;17.25;12.50;;;;;;;10.53;72.49;100468.38;6135499;22;97025;-84
2024/02/28 09:28:32;;;;;;;18.35;12.18;;;;;;;10.56;72.79;100467.41;6185639;22;97876;-83
2024/02/28 09:30:58;;;;;;;16.58;10.82;;;;;;;10.68;72.95;100489.81;6184127;22;98795;-83
2024/02/28 09:33:24;;;;;;;22.40;12.57;;;;;;;10.49;72.95;100472.00;6211559;22;97181;-82
2024/02/28 09:35:50;;;;;;;17.73;11.77;;;;;;;10.55;72.63;100492.81;6212863;22;96723;-84
2024/02/28 09:38:15;;;;;;;21.85;12.70;;;;;;;10.52;72.76;100498.16;6186847;22;97502;-82
2024/02/28 09:40:42;;;;;;;18.52;11.90;;;;;;;10.58;72.94;100505.84;6186265;22;97626;-82
2024/02/28 09:43:14;;;;;;;15.55;10.23;;;;;;;10.43;73.02;100493.19;6186278;22;97058;-82
2024/02/28 09:45:40;;;;;;;12.23;9.32;;;;;;;10.37;72.53;100486.34;6160752;22;96725;-83
2024/02/28 09:48:07;;;;;;;12.82;8.45;;;;;;;10.43;72.36;100506.31;6160419;22;97983;-82
2024/02/28 09:50:34;;;;;;;13.15;8.38;;;;;;;10.45;72.48;100501.88;6159838;22;100616;-76
2024/02/28 09:52:59;;;;;;;12.98;8.05;;;;;;;10.49;72.32;100511.38;6159770;22;97356;-78
2024/02/28 09:55:25;;;;;;;9.68;6.97;;;;;;;10.53;72.58;100505.13;6160034;22;96835;-79
2024/02/28 09:57:50;;;;;;;12.55;7.38;;;;;;;10.54;72.35;100508.63;6211875;22;97484;-83
2024/02/28 10:00:20;;;;;;;11.35;7.43;;;;;;;10.56;72.01;100517.28;6159288;22;97027;-76
2024/02/28 10:02:48;;;;;;;9.73;6.97;;;;;;;10.58;72.12;100518.97;6157991;22;97206;-81
2024/02/28 10:05:14;;;;;;;8.60;7.00;;;;;;;10.64;71.96;100528.41;6183209;22;96886;-80
2024/02/28 10:07:40;;;;;;;10.20;7.30;;;;;;;10.63;72.31;100524.09;6132317;22;100248;-80
2024/02/28 10:10:08;;;;;;;9.65;6.70;;;;;;;10.63;72.14;100518.81;6130894;22;101092;-88
2024/02/28 10:12:34;;;;;;;13.15;7.97;;;;;;;10.52;72.12;100511.28;6156598;22;97129;-84
2024/02/28 10:15:03;;;;;;;11.65;6.93;;;;;;;10.58;72.31;100518.09;6183635;22;97587;-78
2024/02/28 10:17:28;;;;;;;9.18;6.78;;;;;;;10.69;72.34;100541.41;6184346;22;100955;-78
2024/02/28 10:19:54;;;;;;;10.10;6.57;;;;;;;10.72;72.15;100538.69;6184584;22;96709;-79
2024/02/28 10:22:19;;;;;;;7.60;6.03;;;;;;;10.60;72.30;100540.78;6158295;22;96790;-83
2024/02/28 10:24:45;;;;;;;9.98;6.50;;;;;;;10.50;71.75;100535.84;6132685;22;97026;-80
2024/02/28 10:27:15;;;;;;;7.82;6.35;;;;;;;10.34;71.98;100528.44;6210142;22;97492;-79
2024/02/28 10:29:44;;;;;;;11.07;7.38;;;;;;;10.47;71.71;100543.81;6158806;22;100258;-79
2024/02/28 10:32:10;;;;;;;9.73;6.78;;;;;;;10.42;71.46;100536.09;6185033;22;96956;-79
2024/02/28 10:34:37;;;;;;;9.88;7.25;;;;;;;10.36;71.53;100534.50;6159704;22;97707;-79
2024/02/28 10:37:05;;;;;;;11.15;6.80;;;;;;;10.34;71.70;100544.19;6159323;22;97336;-79
2024/02/28 10:39:31;;;;;;;9.90;7.00;;;;;;;10.08;72.15;100533.56;6160024;22;100469;-78
2024/02/28 10:41:59;;;;;;;8.82;6.30;;;;;;;10.16;72.24;100553.41;6159838;22;96700;-79
2024/02/28 10:44:26;;;;;;;10.63;7.53;;;;;;;10.22;71.35;100551.53;6156636;22;96810;-79
2024/02/28 10:46:53;;;;;;;10.07;7.00;;;;;;;10.20;71.57;100562.06;6182061;22;97283;-81
2024/02/28 10:49:19;;;;;;;13.60;6.78;;;;;;;10.28;71.45;100562.72;6131865;22;100398;-82
2024/02/28 10:51:46;;;;;;;10.50;6.72;;;;;;;10.28;71.05;100554.00;6182951;22;97305;-79
2024/02/28 10:54:13;;;;;;;9.30;6.53;;;;;;;10.37;71.47;100564.22;6132765;22;97109;-79
2024/02/28 10:56:44;;;;;;;9.77;7.38;;;;;;;10.40;71.53;100566.75;6183244;22;97360;-81
2024/02/28 10:59:10;;;;;;;8.45;6.47;;;;;;;10.42;71.18;100573.69;6182319;22;97519;-78
2024/02/28 11:01:37;;;;;;;12.43;7.53;;;;;;;10.36;71.28;100563.38;6131716;22;96704;-78
2024/02/28 11:04:03;;;;;;;9.18;6.55;;;;;;;10.41;71.45;100577.22;6182772;22;96792;-81
2024/02/28 11:06:29;;;;;;;8.80;6.85;;;;;;;10.39;71.63;100581.66;6182273;22;98107;-80